Preveza, Greece
Current Conditions -  °F | °C
As of 9:50 PM on Friday 28 Nov 2014 (Local Time) from LGPZ Reporting Station
Broken Clouds Broken Clouds  
Wind Chill: 15°   Ceiling: 8000
Heat Index: 15°   Visibility: 6mi
Dew Point: 13°   Wind: 5mph
Humidity: 88%   Direction: 100°E
Pressure: 30.15"   Gusts: NA
Location:  38.95°N, 20.75°E
Report Text: LGPZ 281850Z 10004KT 9999 SCT018 BKN080 15/13 Q1021
Loading
Personal Weather Stations






























Interactive Weather Map New forecast layout! Learn more

10-Day Weather Forecast

Advertisements
Track Severe Weather on mobile